Time;durP1;ratioP1;P1;durP2;ratioP2;P2;SDS_P1;SDS_P2;PMS_P1;PMS_P2;Temp;Humidity;BMP_temperature;BMP_pressure;BME280_temperature;BME280_humidity;BME280_pressure;Samples;Min_cycle;Max_cycle;Signal;HPM_P1;HPM_P2
2022/04/03 00:01:50;;;;;;;5.68;3.35;;;-1.50;99.90;;;;;;5148125;27;20047;-65
2022/04/03 00:04:16;;;;;;;6.30;3.42;;;-1.50;99.90;;;;;;5129555;27;20046;-65
2022/04/03 00:06:42;;;;;;;6.13;3.45;;;-1.50;99.90;;;;;;5147905;27;20126;-65
2022/04/03 00:09:07;;;;;;;6.68;3.90;;;-1.70;99.90;;;;;;5120548;27;20102;-65
2022/04/03 00:11:33;;;;;;;7.97;3.35;;;-1.80;99.90;;;;;;5141459;27;20061;-66
2022/04/03 00:13:59;;;;;;;6.82;3.90;;;-1.80;99.90;;;;;;5125461;27;20499;-65
2022/04/03 00:16:24;;;;;;;4.85;3.17;;;-1.80;99.90;;;;;;5126066;27;20058;-66
2022/04/03 00:18:51;;;;;;;6.47;3.92;;;-1.80;99.90;;;;;;5111231;27;20054;-66
2022/04/03 00:21:18;;;;;;;6.90;3.95;;;-1.90;99.90;;;;;;5128836;27;20093;-66
2022/04/03 00:23:44;;;;;;;6.50;3.80;;;-1.80;99.90;;;;;;5129008;27;20047;-65
2022/04/03 00:26:10;;;;;;;7.15;3.85;;;-1.90;99.90;;;;;;5145077;27;20054;-66
2022/04/03 00:28:36;;;;;;;7.75;4.68;;;-1.90;99.90;;;;;;5126297;27;20082;-66
2022/04/03 00:31:02;;;;;;;6.85;3.92;;;-1.80;99.90;;;;;;5124565;27;20036;-66
2022/04/03 00:33:28;;;;;;;6.40;4.00;;;-1.80;99.90;;;;;;5128149;27;20043;-66
2022/04/03 00:35:54;;;;;;;8.60;4.85;;;-1.80;99.90;;;;;;5123339;27;20051;-65
2022/04/03 00:38:19;;;;;;;7.10;4.22;;;-1.80;99.90;;;;;;5131625;27;20030;-66
2022/04/03 00:40:46;;;;;;;7.75;3.72;;;-1.70;99.90;;;;;;5132091;27;20051;-66
2022/04/03 00:43:12;;;;;;;7.40;4.90;;;-1.80;99.90;;;;;;5111438;27;20081;-66
2022/04/03 00:45:46;;;;;;;6.07;4.50;;;-1.70;99.90;;;;;;5128807;27;20043;-66
2022/04/03 00:48:12;;;;;;;12.35;5.45;;;-1.80;99.90;;;;;;5147511;27;20182;-66
2022/04/03 00:50:38;;;;;;;7.75;3.97;;;-1.90;99.90;;;;;;5149315;27;20053;-66
2022/04/03 00:53:04;;;;;;;7.55;4.03;;;-1.90;99.90;;;;;;5131882;27;20472;-66
2022/04/03 00:55:30;;;;;;;10.75;5.10;;;-1.90;99.90;;;;;;5142475;27;20104;-66
2022/04/03 00:57:57;;;;;;;8.10;4.63;;;-1.90;99.90;;;;;;5129956;27;20039;-66
2022/04/03 01:00:23;;;;;;;8.02;4.65;;;-1.90;99.90;;;;;;5135480;27;20047;-66
2022/04/03 01:02:49;;;;;;;6.07;4.25;;;-1.90;99.90;;;;;;5146434;27;20059;-65
2022/04/03 01:05:15;;;;;;;7.30;4.53;;;-1.90;99.90;;;;;;5129733;27;20039;-66
2022/04/03 01:07:41;;;;;;;8.23;3.90;;;-1.90;99.90;;;;;;5124783;27;20057;-66
2022/04/03 01:10:07;;;;;;;12.25;4.88;;;-1.90;99.90;;;;;;5145246;27;20035;-66
2022/04/03 01:12:37;;;;;;;6.78;4.50;;;-2.00;99.90;;;;;;5130181;27;20044;-66
2022/04/03 01:15:03;;;;;;;;;;;-2.00;99.90;;;;;;5147694;27;20039;-66
2022/04/03 01:17:29;;;;;;;5.75;4.60;;;-2.00;99.90;;;;;;5120440;27;19923;-66
2022/04/03 01:19:54;;;;;;;9.15;5.07;;;-1.90;99.90;;;;;;5125582;27;20044;-65
2022/04/03 01:22:20;;;;;;;7.93;4.82;;;-1.90;99.90;;;;;;5151191;27;20544;-66
2022/04/03 01:24:47;;;;;;;6.63;4.30;;;-1.90;99.90;;;;;;5144638;27;20039;-65
2022/04/03 01:27:13;;;;;;;9.05;4.65;;;-2.00;99.90;;;;;;5145977;27;20165;-65
2022/04/03 01:29:39;;;;;;;6.88;4.20;;;-2.00;99.90;;;;;;5122966;27;20827;-66
2022/04/03 01:32:05;;;;;;;5.78;3.90;;;-2.00;99.90;;;;;;5144297;27;20051;-66
2022/04/03 01:34:31;;;;;;;7.22;4.97;;;-2.10;99.90;;;;;;5145883;27;20111;-66
2022/04/03 01:36:57;;;;;;;8.68;4.32;;;-2.10;99.90;;;;;;5145475;27;20047;-65
2022/04/03 01:39:24;;;;;;;7.25;4.35;;;-2.10;99.90;;;;;;5126948;27;20035;-66
2022/04/03 01:41:49;;;;;;;8.15;4.25;;;-2.10;99.90;;;;;;5126980;27;20055;-66
2022/04/03 01:44:16;;;;;;;8.80;4.35;;;-2.20;99.90;;;;;;5127189;27;20107;-66
2022/04/03 01:46:42;;;;;;;6.20;3.85;;;-2.20;99.90;;;;;;5127222;28;20057;-66
2022/04/03 01:49:08;;;;;;;6.03;4.05;;;-2.30;99.90;;;;;;5127128;28;20063;-65
2022/04/03 01:51:34;;;;;;;5.35;3.95;;;-2.20;99.90;;;;;;5145980;27;20092;-65
2022/04/03 01:54:01;;;;;;;8.70;4.25;;;-2.30;99.90;;;;;;5146399;27;20035;-66
2022/04/03 01:56:28;;;;;;;6.82;4.35;;;-2.20;99.90;;;;;;5109983;28;20045;-66
2022/04/03 01:58:54;;;;;;;6.13;4.10;;;-2.20;99.90;;;;;;5127492;28;20098;-66
2022/04/03 02:01:20;;;;;;;8.18;3.95;;;-2.10;99.90;;;;;;5126536;28;20042;-66
2022/04/03 02:03:49;;;;;;;8.18;4.43;;;-2.20;99.90;;;;;;5127944;28;20451;-65
2022/04/03 02:06:15;;;;;;;5.10;4.20;;;-2.20;99.90;;;;;;5131740;27;20043;-66
2022/04/03 02:08:42;;;;;;;8.50;4.30;;;-2.20;99.90;;;;;;5113830;27;20067;-66
2022/04/03 02:11:08;;;;;;;8.23;3.67;;;-2.20;99.90;;;;;;5130924;27;20039;-66
2022/04/03 02:13:34;;;;;;;6.22;4.05;;;-2.30;99.90;;;;;;5130726;27;20046;-66
2022/04/03 02:15:59;;;;;;;5.90;4.00;;;-2.30;99.90;;;;;;5131283;27;20047;-66
2022/04/03 02:18:25;;;;;;;7.93;4.13;;;-2.30;99.90;;;;;;5147346;27;20047;-66
2022/04/03 02:20:50;;;;;;;5.25;3.28;;;-2.20;99.90;;;;;;5124278;28;20073;-66
2022/04/03 02:23:16;;;;;;;5.95;4.00;;;-2.10;99.90;;;;;;5148346;27;20497;-66
2022/04/03 02:25:42;;;;;;;6.50;4.47;;;-2.10;99.90;;;;;;5131071;27;20041;-66
2022/04/03 02:28:10;;;;;;;7.47;3.95;;;-1.90;99.90;;;;;;5149365;27;20043;-66
2022/04/03 02:30:36;;;;;;;6.20;3.92;;;-2.00;99.90;;;;;;5130918;27;20058;-66
2022/04/03 02:33:02;;;;;;;5.85;3.92;;;-2.00;99.90;;;;;;5149516;27;20054;-66
2022/04/03 02:35:28;;;;;;;6.60;4.18;;;-2.00;99.90;;;;;;5153023;27;20043;-66
2022/04/03 02:37:54;;;;;;;8.70;3.90;;;-2.00;99.90;;;;;;5143923;27;20039;-66
2022/04/03 02:40:19;;;;;;;9.60;4.10;;;-1.90;99.90;;;;;;5171955;27;20903;-66
2022/04/03 02:42:45;;;;;;;7.05;3.97;;;-1.90;99.90;;;;;;5144183;27;20099;-66
2022/04/03 02:45:11;;;;;;;6.47;4.25;;;-1.90;99.90;;;;;;5142735;27;20047;-66
2022/04/03 02:47:38;;;;;;;5.70;3.67;;;-1.80;99.90;;;;;;5164001;27;20049;-66
2022/04/03 02:50:05;;;;;;;6.97;4.63;;;-1.80;99.90;;;;;;5171502;27;20049;-66
2022/04/03 02:52:31;;;;;;;5.55;4.28;;;-1.80;99.90;;;;;;5150776;27;20081;-66
2022/04/03 02:54:57;;;;;;;6.25;4.20;;;-1.90;99.90;;;;;;5154064;27;20071;-66
2022/04/03 02:57:23;;;;;;;8.80;4.18;;;-1.80;99.90;;;;;;5150851;27;20506;-66
2022/04/03 02:59:49;;;;;;;5.25;3.92;;;-1.90;99.90;;;;;;5169529;27;20040;-66
2022/04/03 03:02:15;;;;;;;7.93;4.13;;;-1.80;99.90;;;;;;5150598;27;20054;-66
2022/04/03 03:04:40;;;;;;;6.15;4.10;;;-1.70;99.90;;;;;;5174174;27;20038;-66
2022/04/03 03:07:07;;;;;;;7.25;4.28;;;-1.70;99.90;;;;;;5169643;27;20042;-66
2022/04/03 03:09:34;;;;;;;5.50;3.83;;;-1.60;99.90;;;;;;5169218;27;20055;-66
2022/04/03 03:11:59;;;;;;;6.82;4.53;;;-1.40;99.90;;;;;;5149436;27;20053;-66
2022/04/03 03:14:27;;;;;;;8.32;4.65;;;-1.30;99.90;;;;;;5148208;27;20042;-66
2022/04/03 03:16:53;;;;;;;8.40;5.00;;;-1.10;99.90;;;;;;5169597;27;20035;-66
2022/04/03 03:19:19;;;;;;;7.45;4.60;;;-1.00;99.90;;;;;;5150657;27;20043;-65
2022/04/03 03:21:45;;;;;;;9.73;4.75;;;-0.90;99.90;;;;;;5150802;27;20089;-66
2022/04/03 03:24:10;;;;;;;6.18;4.32;;;-0.90;99.90;;;;;;5149920;27;20038;-66
2022/04/03 03:26:37;;;;;;;6.35;4.22;;;-0.80;99.90;;;;;;5163223;27;20418;-66
2022/04/03 03:29:03;;;;;;;6.57;3.90;;;-0.80;99.90;;;;;;5150754;27;20046;-66
2022/04/03 03:31:29;;;;;;;7.82;4.10;;;-0.80;99.90;;;;;;5145948;27;20066;-66
2022/04/03 03:33:55;;;;;;;5.78;4.00;;;-0.70;99.90;;;;;;5143207;27;20047;-66
2022/04/03 03:36:21;;;;;;;8.52;4.28;;;-0.80;99.90;;;;;;5150830;27;20042;-66
2022/04/03 03:38:46;;;;;;;8.30;4.13;;;-0.80;99.90;;;;;;5150040;27;20043;-66
2022/04/03 03:41:14;;;;;;;5.30;3.72;;;-0.70;99.90;;;;;;5166169;27;20814;-66
2022/04/03 03:43:40;;;;;;;5.30;3.47;;;-0.60;99.90;;;;;;5149348;27;20046;-66
2022/04/03 03:46:07;;;;;;;6.95;4.13;;;-0.60;99.90;;;;;;5168732;27;20561;-66
2022/04/03 03:48:34;;;;;;;5.32;4.40;;;-0.60;99.90;;;;;;5171713;27;20103;-66
2022/04/03 03:51:00;;;;;;;7.60;4.30;;;-0.60;99.90;;;;;;5151027;27;20344;-66
2022/04/03 03:53:25;;;;;;;9.38;4.65;;;-0.50;99.90;;;;;;5150144;27;20066;-66
2022/04/03 03:55:51;;;;;;;7.50;4.88;;;-0.40;99.90;;;;;;5172245;27;20079;-66
2022/04/03 03:58:17;;;;;;;8.52;5.43;;;-0.50;99.90;;;;;;5149967;27;20050;-66
2022/04/03 04:00:42;;;;;;;7.28;5.10;;;-0.30;99.90;;;;;;5148181;27;20038;-66
2022/04/03 04:03:08;;;;;;;9.38;5.00;;;-0.20;99.90;;;;;;5167831;27;20111;-66
2022/04/03 04:05:34;;;;;;;6.97;5.43;;;0.00;99.90;;;;;;5133132;27;20047;-66
2022/04/03 04:07:59;;;;;;;6.53;5.47;;;0.20;99.90;;;;;;5150196;27;20083;-66
2022/04/03 04:10:25;;;;;;;9.30;5.47;;;0.30;99.90;;;;;;5168365;27;20217;-66
2022/04/03 04:12:51;;;;;;;7.32;5.53;;;0.30;99.90;;;;;;5167218;27;20051;-66
2022/04/03 04:15:17;;;;;;;7.95;5.80;;;0.30;99.90;;;;;;5149909;27;20080;-66
2022/04/03 04:17:44;;;;;;;7.68;6.18;;;0.20;99.90;;;;;;5168056;27;20560;-66
2022/04/03 04:20:15;;;;;;;11.85;6.25;;;0.20;99.90;;;;;;5151022;27;20092;-66
2022/04/03 04:22:42;;;;;;;7.03;6.05;;;0.30;99.90;;;;;;5140659;27;20050;-66
2022/04/03 04:25:09;;;;;;;8.98;5.57;;;0.20;99.90;;;;;;5145586;27;20121;-66
2022/04/03 04:27:35;;;;;;;7.35;5.55;;;0.40;99.90;;;;;;5148654;27;20151;-66
2022/04/03 04:30:02;;;;;;;8.57;5.93;;;0.40;99.90;;;;;;5149684;27;20050;-66
2022/04/03 04:32:27;;;;;;;8.32;5.75;;;0.20;99.90;;;;;;5167648;27;20413;-66
2022/04/03 04:34:53;;;;;;;9.40;5.95;;;0.30;99.90;;;;;;5149084;27;20075;-66
2022/04/03 04:37:19;;;;;;;13.27;6.07;;;0.30;99.90;;;;;;5149238;27;20042;-66
2022/04/03 04:39:45;;;;;;;10.40;6.45;;;0.20;99.90;;;;;;5167825;27;20035;-66
2022/04/03 04:42:12;;;;;;;10.40;6.32;;;0.50;99.90;;;;;;5148156;27;20419;-66
2022/04/03 04:44:38;;;;;;;10.13;6.63;;;0.40;99.90;;;;;;5147895;27;20129;-66
2022/04/03 04:47:05;;;;;;;10.23;6.70;;;0.50;99.90;;;;;;5149083;27;20042;-66
2022/04/03 04:49:31;;;;;;;9.70;6.82;;;0.40;99.90;;;;;;5148673;27;20517;-66
2022/04/03 04:51:56;;;;;;;9.55;6.10;;;0.40;99.90;;;;;;5161056;27;20070;-66
2022/04/03 04:54:23;;;;;;;8.88;5.88;;;0.30;99.90;;;;;;5148625;27;20070;-66
2022/04/03 04:56:48;;;;;;;8.93;5.85;;;0.30;99.90;;;;;;5148653;27;20049;-66
2022/04/03 04:59:14;;;;;;;7.63;5.80;;;0.20;99.90;;;;;;5148864;27;20042;-66
2022/04/03 05:01:40;;;;;;;8.77;5.88;;;0.30;99.90;;;;;;5170712;27;20067;-66
2022/04/03 05:04:06;;;;;;;7.57;5.55;;;0.20;99.90;;;;;;5148739;27;20039;-66
2022/04/03 05:06:34;;;;;;;8.45;5.75;;;0.20;99.90;;;;;;5167689;27;20514;-66
2022/04/03 05:09:00;;;;;;;7.35;5.35;;;0.20;99.90;;;;;;5148314;27;20091;-66
2022/04/03 05:11:27;;;;;;;7.93;5.85;;;0.20;99.90;;;;;;5166303;27;20139;-66
2022/04/03 05:13:53;;;;;;;8.00;5.18;;;0.00;99.90;;;;;;5135575;27;20391;-66
2022/04/03 05:16:19;;;;;;;7.45;5.43;;;-0.10;99.90;;;;;;5147712;27;20050;-66
2022/04/03 05:18:46;;;;;;;7.10;5.30;;;-0.10;99.90;;;;;;5167123;27;20043;-66
2022/04/03 05:21:12;;;;;;;7.32;5.63;;;0.00;99.90;;;;;;5147309;27;20087;-66
2022/04/03 05:23:38;;;;;;;8.27;5.95;;;-0.10;99.90;;;;;;5165382;27;20077;-66
2022/04/03 05:26:05;;;;;;;9.80;5.35;;;0.00;99.90;;;;;;5140622;27;20059;-66
2022/04/03 05:28:30;;;;;;;6.22;5.57;;;0.20;99.90;;;;;;5148480;27;20046;-66
2022/04/03 05:30:56;;;;;;;7.63;5.75;;;0.00;99.90;;;;;;5147255;27;20042;-66
2022/04/03 05:33:23;;;;;;;8.73;5.43;;;0.30;99.90;;;;;;5145760;27;20090;-66
2022/04/03 05:35:49;;;;;;;8.45;5.22;;;0.20;99.90;;;;;;5143479;27;20081;-66
2022/04/03 05:38:15;;;;;;;6.78;5.20;;;0.30;99.90;;;;;;5126814;27;20046;-66
2022/04/03 05:40:40;;;;;;;8.50;5.13;;;0.40;99.90;;;;;;5141707;27;20027;-66
2022/04/03 05:43:06;;;;;;;7.43;5.40;;;0.20;99.90;;;;;;5127483;27;20046;-66
2022/04/03 05:45:32;;;;;;;9.48;5.25;;;0.30;99.90;;;;;;5126954;27;20072;-66
2022/04/03 05:47:58;;;;;;;7.50;5.35;;;0.20;99.90;;;;;;5144604;27;20043;-66
2022/04/03 05:50:23;;;;;;;7.68;5.13;;;0.10;99.90;;;;;;5139492;27;20063;-66
2022/04/03 05:52:52;;;;;;;7.13;5.15;;;0.20;99.90;;;;;;5141694;27;20099;-66
2022/04/03 05:55:20;;;;;;;7.90;5.97;;;0.20;99.90;;;;;;5126817;28;20095;-66
2022/04/03 05:57:48;;;;;;;6.97;5.65;;;0.00;99.90;;;;;;5126728;28;20050;-66
2022/04/03 06:00:15;;;;;;;9.23;5.70;;;0.10;99.90;;;;;;5126348;28;20074;-66
2022/04/03 06:03:02;;;;;;;8.82;5.30;;;0.10;99.90;;;;;;5122579;28;20090;-66
2022/04/03 06:05:30;;;;;;;9.57;5.30;;;0.00;99.90;;;;;;5132223;28;20082;-66
2022/04/03 06:07:56;;;;;;;8.52;6.25;;;0.10;99.90;;;;;;5127933;28;20519;-66
2022/04/03 06:10:23;;;;;;;8.23;5.93;;;0.10;99.90;;;;;;5127392;28;20058;-66
2022/04/03 06:13:02;;;;;;;8.52;5.65;;;0.10;99.90;;;;;;5124086;28;20129;-66
2022/04/03 06:15:37;;;;;;;8.85;5.88;;;-0.10;99.90;;;;;;5140083;28;20052;-66
2022/04/03 06:18:15;;;;;;;8.93;5.68;;;0.00;99.90;;;;;;5139769;27;20063;-66
2022/04/03 06:20:42;;;;;;;7.50;6.03;;;-0.20;99.90;;;;;;5127245;28;20078;-66
2022/04/03 06:23:14;;;;;;;9.18;6.28;;;-0.10;99.90;;;;;;5126384;28;20419;-66
2022/04/03 06:25:41;;;;;;;9.57;5.82;;;-0.10;99.90;;;;;;5122965;28;20051;-66
2022/04/03 06:28:06;;;;;;;8.73;6.65;;;-0.20;99.90;;;;;;5145276;27;20067;-66
2022/04/03 06:30:32;;;;;;;11.38;6.43;;;0.00;99.90;;;;;;5122198;28;20039;-66
2022/04/03 06:32:58;;;;;;;8.57;6.47;;;0.20;99.90;;;;;;5139265;27;20055;-66
2022/04/03 06:35:24;;;;;;;8.40;5.93;;;0.10;99.90;;;;;;5147802;27;20051;-66
2022/04/03 06:37:49;;;;;;;11.00;6.13;;;0.40;99.90;;;;;;5166026;27;20050;-66
2022/04/03 06:40:16;;;;;;;10.55;5.88;;;0.50;99.90;;;;;;5145474;27;20042;-66
2022/04/03 06:42:43;;;;;;;8.77;6.13;;;0.50;99.90;;;;;;5160834;27;20046;-66
2022/04/03 06:45:10;;;;;;;8.98;5.97;;;0.70;99.90;;;;;;5130118;27;20045;-66
2022/04/03 06:47:36;;;;;;;8.48;5.80;;;0.90;99.90;;;;;;5165547;27;20043;-66
2022/04/03 06:50:04;;;;;;;10.32;5.95;;;0.70;99.90;;;;;;5142602;27;20124;-70
2022/04/03 06:52:30;;;;;;;7.88;5.75;;;0.80;99.90;;;;;;5151403;27;20054;-65
2022/04/03 06:54:56;;;;;;;7.55;5.97;;;0.60;99.90;;;;;;5149915;27;20043;-65
2022/04/03 06:57:21;;;;;;;9.77;5.35;;;0.70;99.90;;;;;;5169274;27;20062;-64
2022/04/03 06:59:47;;;;;;;6.97;5.22;;;0.60;99.90;;;;;;5149414;27;20062;-64
2022/04/03 07:02:13;;;;;;;6.07;4.97;;;0.70;99.90;;;;;;5163960;27;20043;-64
2022/04/03 07:04:39;;;;;;;6.60;5.32;;;0.80;99.90;;;;;;5150386;27;20066;-64
2022/04/03 07:07:04;;;;;;;6.13;4.65;;;0.80;99.90;;;;;;5151535;27;20041;-65
2022/04/03 07:09:31;;;;;;;8.55;4.95;;;0.90;99.90;;;;;;5169296;27;20118;-64
2022/04/03 07:11:57;;;;;;;8.20;4.75;;;1.10;99.90;;;;;;5168372;27;20061;-64
2022/04/03 07:14:23;;;;;;;9.38;4.25;;;1.30;99.90;;;;;;5148276;27;20168;-65
2022/04/03 07:16:49;;;;;;;6.68;4.15;;;1.60;99.90;;;;;;5149722;27;20051;-65
2022/04/03 07:19:14;;;;;;;8.32;4.53;;;1.80;99.90;;;;;;5149924;27;20046;-65
2022/04/03 07:21:40;;;;;;;5.07;3.63;;;1.80;99.90;;;;;;5149896;27;20058;-64
2022/04/03 07:24:07;;;;;;;8.05;4.05;;;1.90;99.90;;;;;;5150971;27;20042;-65
2022/04/03 07:26:33;;;;;;;8.48;3.42;;;2.00;99.90;;;;;;5168903;27;20046;-65
2022/04/03 07:28:59;;;;;;;7.35;4.28;;;2.10;99.90;;;;;;5164789;27;20113;-65
2022/04/03 07:31:28;;;;;;;4.72;3.63;;;2.20;99.90;;;;;;5147710;27;20082;-65
2022/04/03 07:33:55;;;;;;;8.13;3.90;;;2.30;99.90;;;;;;5137408;27;20055;-64
2022/04/03 07:36:21;;;;;;;7.10;4.45;;;2.60;99.90;;;;;;5124365;27;20047;-64
2022/04/03 07:38:47;;;;;;;7.18;3.92;;;2.60;99.90;;;;;;5133027;27;20043;-64
2022/04/03 07:41:12;;;;;;;4.60;3.80;;;2.50;99.90;;;;;;5148353;27;20093;-65
2022/04/03 07:43:38;;;;;;;8.02;3.90;;;2.60;99.90;;;;;;5146268;27;20047;-65
2022/04/03 07:46:04;;;;;;;6.65;3.80;;;2.60;99.90;;;;;;5163249;27;20529;-65
2022/04/03 07:48:30;;;;;;;13.45;5.50;;;2.60;99.90;;;;;;5145222;27;20043;-65
2022/04/03 07:50:56;;;;;;;7.45;3.90;;;2.60;99.90;;;;;;5159008;27;20058;-65
2022/04/03 07:53:21;;;;;;;5.78;4.05;;;2.60;99.90;;;;;;5141457;27;20074;-65
2022/04/03 07:55:47;;;;;;;6.80;4.38;;;2.80;99.90;;;;;;5147536;27;20046;-63
2022/04/03 07:58:13;;;;;;;7.35;4.13;;;2.80;99.90;;;;;;5153119;27;20043;-61
2022/04/03 08:00:39;;;;;;;5.20;3.58;;;2.90;99.90;;;;;;5151492;27;20050;-62
2022/04/03 08:03:05;;;;;;;6.07;3.20;;;3.10;99.90;;;;;;5128200;27;20063;-63
2022/04/03 08:05:31;;;;;;;10.25;3.22;;;3.40;99.90;;;;;;5115572;27;20047;-63
2022/04/03 08:07:56;;;;;;;7.78;3.03;;;3.50;99.90;;;;;;5129437;27;20058;-63
2022/04/03 08:10:22;;;;;;;8.90;3.00;;;3.60;99.90;;;;;;5129610;27;20043;-63
2022/04/03 08:12:49;;;;;;;4.47;3.10;;;3.70;99.90;;;;;;5131998;27;20042;-63
2022/04/03 08:15:17;;;;;;;4.57;2.50;;;3.90;99.90;;;;;;5127900;27;20061;-63
2022/04/03 08:17:43;;;;;;;6.00;2.40;;;4.00;99.90;;;;;;5128211;27;20107;-65
2022/04/03 08:20:16;;;;;;;5.88;2.33;;;4.10;99.90;;;;;;5132751;27;20082;-64
2022/04/03 08:22:43;;;;;;;4.63;2.40;;;4.10;99.90;;;;;;5132704;27;20051;-65
2022/04/03 08:25:12;;;;;;;7.18;2.80;;;4.30;99.90;;;;;;5088862;27;20321;-70
2022/04/03 08:27:42;;;;;;;5.78;2.33;;;4.40;99.90;;;;;;5143208;27;20646;-63
2022/04/03 08:30:10;;;;;;;3.70;2.38;;;4.40;99.90;;;;;;5098780;27;20147;-65
2022/04/03 08:32:36;;;;;;;6.70;3.03;;;4.70;99.90;;;;;;5111124;27;20055;-65
2022/04/03 08:35:02;;;;;;;3.65;2.05;;;4.80;99.90;;;;;;5106598;27;20055;-65
2022/04/03 08:37:30;;;;;;;6.25;2.28;;;4.90;99.90;;;;;;5118328;28;20103;-65
2022/04/03 08:39:56;;;;;;;4.63;2.17;;;5.00;99.90;;;;;;5121557;27;20073;-65
2022/04/03 08:42:22;;;;;;;4.28;2.33;;;5.10;99.90;;;;;;5113185;28;20044;-65
2022/04/03 08:44:47;;;;;;;3.40;1.98;;;5.20;99.90;;;;;;5125666;27;20040;-66
2022/04/03 08:47:17;;;;;;;4.90;2.22;;;5.20;99.90;;;;;;5117835;27;20047;-66
2022/04/03 08:49:44;;;;;;;5.47;2.22;;;5.30;99.90;;;;;;5136339;27;20073;-65
2022/04/03 08:52:13;;;;;;;5.68;1.90;;;5.50;99.90;;;;;;5093051;27;20047;-65
2022/04/03 08:54:40;;;;;;;5.15;2.00;;;5.60;99.90;;;;;;5138873;27;20035;-65
2022/04/03 08:57:06;;;;;;;5.15;1.90;;;5.50;99.90;;;;;;5109128;27;20047;-65
2022/04/03 08:59:32;;;;;;;2.45;1.60;;;5.60;99.90;;;;;;5118148;27;20055;-65
2022/04/03 09:01:57;;;;;;;6.70;2.55;;;5.70;99.90;;;;;;5103462;27;20062;-65
2022/04/03 09:04:23;;;;;;;6.00;1.40;;;5.80;99.90;;;;;;5105521;27;20031;-65
2022/04/03 09:06:58;;;;;;;4.95;1.83;;;5.80;99.90;;;;;;5115179;27;20073;-65
2022/04/03 09:09:25;;;;;;;3.63;1.67;;;6.00;99.90;;;;;;5114029;27;20072;-65
2022/04/03 09:12:14;;;;;;;4.45;1.92;;;6.20;99.90;;;;;;5106311;27;20451;-65
2022/04/03 09:14:51;;;;;;;5.35;1.58;;;6.20;99.90;;;;;;5117340;27;20285;-65
2022/04/03 09:17:36;;;;;;;2.60;1.50;;;6.20;99.90;;;;;;5092278;27;20059;-65
2022/04/03 09:20:15;;;;;;;2.28;1.30;;;6.30;99.90;;;;;;5109532;27;20067;-66
2022/04/03 09:22:43;;;;;;;3.53;1.40;;;6.60;99.90;;;;;;5106355;27;20031;-66
2022/04/03 09:25:11;;;;;;;3.20;1.05;;;6.60;99.90;;;;;;5090478;27;20139;-65
2022/04/03 09:27:52;;;;;;;4.65;1.40;;;6.50;99.90;;;;;;5117758;27;20043;-66
2022/04/03 09:30:18;;;;;;;;;;;6.60;99.90;;;;;;5113475;27;20043;-65
2022/04/03 09:32:55;;;;;;;3.78;1.30;;;6.70;99.90;;;;;;5126717;27;19919;-66
2022/04/03 09:35:24;;;;;;;3.20;1.20;;;6.80;99.90;;;;;;5132641;27;20057;-65
2022/04/03 09:38:05;;;;;;;2.83;0.70;;;6.80;99.90;;;;;;5123411;27;20085;-66
2022/04/03 09:40:32;;;;;;;3.85;1.00;;;6.80;99.90;;;;;;5128834;27;20039;-65
2022/04/03 09:43:16;;;;;;;1.58;0.88;;;6.90;99.90;;;;;;5139856;27;20356;-65
2022/04/03 09:45:48;;;;;;;2.10;0.90;;;7.10;99.90;;;;;;5129601;27;20106;-65
2022/04/03 09:48:21;;;;;;;1.90;1.10;;;7.30;99.90;;;;;;5146216;27;20071;-65
2022/04/03 09:51:11;;;;;;;2.35;1.10;;;7.50;99.90;;;;;;5129021;27;20526;-65
2022/04/03 09:53:45;;;;;;;;;;;7.50;99.90;;;;;;5135330;27;20051;-66
2022/04/03 09:56:12;;;;;;;1.65;1.00;;;7.20;99.90;;;;;;5119655;27;19923;-66
2022/04/03 09:58:53;;;;;;;5.30;0.90;;;7.30;99.90;;;;;;5129104;27;20062;-65
2022/04/03 10:01:27;;;;;;;3.17;1.00;;;7.10;99.90;;;;;;5128043;27;20051;-65
2022/04/03 10:03:54;;;;;;;6.43;1.50;;;7.20;99.90;;;;;;5137433;28;20047;-65
2022/04/03 10:06:20;;;;;;;3.45;0.88;;;7.10;99.90;;;;;;5114630;27;20104;-65
2022/04/03 10:08:50;;;;;;;3.60;1.00;;;6.90;99.90;;;;;;5136093;28;20051;-65
2022/04/03 10:11:16;;;;;;;2.85;0.80;;;6.70;99.90;;;;;;5120505;27;20119;-65
2022/04/03 10:13:43;;;;;;;3.42;1.20;;;6.60;99.90;;;;;;5113106;28;20043;-65
2022/04/03 10:16:13;;;;;;;2.50;0.88;;;6.60;99.90;;;;;;5124179;27;20079;-65
2022/04/03 10:18:46;;;;;;;1.67;1.00;;;6.80;99.90;;;;;;5118226;28;20381;-65
2022/04/03 10:21:30;;;;;;;3.80;1.10;;;7.00;99.90;;;;;;5109197;28;20050;-65
2022/04/03 10:24:15;;;;;;;3.80;1.10;;;7.30;99.90;;;;;;5135326;28;20035;-65
2022/04/03 10:26:43;;;;;;;4.63;1.13;;;7.40;99.90;;;;;;5089988;27;20051;-65
2022/04/03 10:29:10;;;;;;;4.63;2.25;;;7.40;99.90;;;;;;5139135;27;20125;-65
2022/04/03 10:31:39;;;;;;;3.97;2.25;;;7.30;99.90;;;;;;5128731;27;20063;-66
2022/04/03 10:34:06;;;;;;;2.28;0.93;;;7.30;99.90;;;;;;5133990;27;20058;-69
2022/04/03 10:36:33;;;;;;;3.03;1.40;;;7.40;99.90;;;;;;5131932;27;20140;-66
2022/04/03 10:39:09;;;;;;;6.18;1.77;;;7.40;99.90;;;;;;5143609;27;20050;-65
2022/04/03 10:41:36;;;;;;;8.77;4.95;;;7.20;99.90;;;;;;5126016;27;20047;-65
2022/04/03 10:44:14;;;;;;;5.18;2.60;;;7.10;99.90;;;;;;5138241;27;20031;-64
2022/04/03 10:46:59;;;;;;;4.55;1.80;;;7.00;99.90;;;;;;5114642;27;20120;-63
2022/04/03 10:49:48;;;;;;;2.80;1.38;;;7.10;99.90;;;;;;5126728;27;20051;-64
2022/04/03 10:52:25;;;;;;;3.42;1.00;;;7.20;99.90;;;;;;5148261;27;20074;-64
2022/04/03 10:54:57;;;;;;;4.53;0.95;;;7.10;99.90;;;;;;5143730;27;20459;-63
2022/04/03 10:57:42;;;;;;;18.88;2.13;;;7.10;99.90;;;;;;5136799;27;20051;-64
2022/04/03 11:00:14;;;;;;;10.52;2.13;;;6.60;99.90;;;;;;5152057;27;20129;-64
2022/04/03 11:02:43;;;;;;;6.45;1.40;;;6.00;99.90;;;;;;5126089;27;20070;-64
2022/04/03 11:05:27;;;;;;;3.63;1.30;;;5.80;99.90;;;;;;5156504;27;20035;-64
2022/04/03 11:07:58;;;;;;;2.40;1.20;;;5.70;99.90;;;;;;5144607;27;20061;-65
2022/04/03 11:10:54;;;;;;;3.22;1.40;;;5.70;99.90;;;;;;5115274;27;20046;-65
2022/04/03 11:13:35;;;;;;;4.97;1.30;;;5.90;99.90;;;;;;5145924;27;20049;-64
2022/04/03 11:16:03;;;;;;;2.55;1.40;;;5.90;99.90;;;;;;5151017;27;20046;-64
2022/04/03 11:18:29;;;;;;;4.63;1.50;;;5.90;99.90;;;;;;5158265;27;20057;-64
2022/04/03 11:21:08;;;;;;;4.55;1.27;;;6.10;99.90;;;;;;5151894;27;20476;-64
2022/04/03 11:23:44;;;;;;;3.10;1.42;;;6.50;99.90;;;;;;5166998;27;20074;-64
2022/04/03 11:26:09;;;;;;;2.75;1.10;;;7.00;99.90;;;;;;5139249;27;20553;-66
2022/04/03 11:28:36;;;;;;;6.05;1.90;;;7.20;99.90;;;;;;5142399;27;20110;-66
2022/04/03 11:31:03;;;;;;;3.55;1.40;;;7.40;99.90;;;;;;5136074;27;20149;-65
2022/04/03 11:33:29;;;;;;;4.00;1.20;;;7.60;99.90;;;;;;5139729;27;20054;-66
2022/04/03 11:36:00;;;;;;;3.15;1.52;;;7.60;99.90;;;;;;5131606;27;20050;-66
2022/04/03 11:38:39;;;;;;;3.25;1.30;;;7.70;99.90;;;;;;5140795;27;20047;-65
2022/04/03 11:41:09;;;;;;;2.13;1.13;;;7.50;99.90;;;;;;5130570;27;20076;-65
2022/04/03 11:43:35;;;;;;;1.75;1.15;;;7.50;99.90;;;;;;5140494;27;20042;-66
2022/04/03 11:46:03;;;;;;;2.85;1.88;;;7.50;99.90;;;;;;5129067;27;20614;-66
2022/04/03 11:48:47;;;;;;;5.20;2.45;;;7.40;99.90;;;;;;5132676;27;20039;-66
2022/04/03 11:51:18;;;;;;;1.75;0.90;;;7.70;99.90;;;;;;5141835;27;20591;-66
2022/04/03 11:53:46;;;;;;;2.22;1.13;;;7.50;99.90;;;;;;5136310;27;20043;-66
2022/04/03 11:56:12;;;;;;;3.45;1.10;;;7.60;99.90;;;;;;5142500;27;20070;-66
2022/04/03 11:58:43;;;;;;;3.67;1.58;;;7.80;99.90;;;;;;5148609;27;20039;-66
2022/04/03 12:01:09;;;;;;;2.15;1.10;;;7.70;99.90;;;;;;5129782;27;20054;-66
2022/04/03 12:03:36;;;;;;;5.13;2.08;;;7.50;99.90;;;;;;5156772;27;20045;-66
2022/04/03 12:06:18;;;;;;;3.80;1.50;;;7.40;99.90;;;;;;5129875;27;20051;-65
2022/04/03 12:08:49;;;;;;;4.80;1.73;;;7.20;99.90;;;;;;5140159;27;20058;-66
2022/04/03 12:11:29;;;;;;;4.65;1.52;;;7.10;99.90;;;;;;5130797;27;20038;-66
2022/04/03 12:14:00;;;;;;;4.57;1.75;;;6.70;99.90;;;;;;5161821;27;20038;-66
2022/04/03 12:16:43;;;;;;;1.90;1.33;;;6.60;99.90;;;;;;5124756;27;20052;-66
2022/04/03 12:19:17;;;;;;;2.35;1.38;;;6.60;99.90;;;;;;5150388;27;20034;-65
2022/04/03 12:21:45;;;;;;;4.53;1.60;;;6.70;99.90;;;;;;5130313;27;20038;-66
2022/04/03 12:24:13;;;;;;;5.70;1.77;;;7.00;99.90;;;;;;5140044;27;20388;-66
2022/04/03 12:26:45;;;;;;;4.22;1.63;;;7.10;99.90;;;;;;5097843;27;20085;-66
2022/04/03 12:29:11;;;;;;;2.92;1.60;;;7.20;99.90;;;;;;5137176;27;20038;-66
2022/04/03 12:31:37;;;;;;;4.97;1.67;;;7.40;99.90;;;;;;5131640;27;20138;-66
2022/04/03 12:34:15;;;;;;;3.63;1.70;;;7.40;99.90;;;;;;5150841;27;20081;-66
2022/04/03 12:36:42;;;;;;;5.55;1.90;;;7.40;99.90;;;;;;5128697;27;20534;-66
2022/04/03 12:39:27;;;;;;;1.83;1.50;;;7.50;99.90;;;;;;5150282;27;20081;-66
2022/04/03 12:41:54;;;;;;;2.75;1.60;;;7.50;99.90;;;;;;5117326;27;20055;-66
2022/04/03 12:44:20;;;;;;;3.53;1.65;;;7.40;99.90;;;;;;5127555;27;20051;-65
2022/04/03 12:46:46;;;;;;;2.58;1.95;;;7.30;99.90;;;;;;5121490;27;20072;-66
2022/04/03 12:49:19;;;;;;;2.90;1.65;;;7.30;99.90;;;;;;5139017;27;20685;-66
2022/04/03 12:51:46;;;;;;;3.97;1.60;;;7.50;99.90;;;;;;5130144;27;20111;-67
2022/04/03 12:54:12;;;;;;;2.33;1.42;;;7.50;99.90;;;;;;5130852;27;20115;-66
2022/04/03 12:59:23;;;;;;;2.67;1.25;;;7.80;99.90;;;;;;5142253;27;20064;-66
2022/04/03 13:01:54;;;;;;;2.30;1.30;;;7.70;99.90;;;;;;5150753;27;20050;-66